Airfield :
LOGIN :

Register | Disclaimer

   EN    FR    IT 

 










Legend :    VFR   Marginal VFR   IFR   Intensive IFR   Very Intensive IFR
Visi :
Ceiling :
>= 8 km
>= 3000ft
5 to 8 km
1000 to 3000 ft
1500m to 5 km
500 to 1000 ft
800 to 1500m
200 to 500 ft
< 800m
< 200 ft
Symbols :   Thunderstorms  Fog  Heavy snow  Heavy precipitations  Wind > 20 kt
SIGMETs :     Misc.  Thunderstorms  Icing  Turbulence  Mountain Waves  Volcanic Ashes







- Airport Elevation : 202 ft
- IATA code : LGW
- Download approach charts


EGKK - London Gatwick

CURRENT METAR :
  • 160020Z 21005KT 170V250 9999 BKN011 18/16 Q1015

EXPIRED METARs :
  • 152350Z 20007KT 180V240 9999 FEW011 BKN027 17/16 Q1016
  • 152320Z 21008KT 9999 BKN025 17/16 Q1016
  • 152250Z 21008KT 9999 BKN032 17/15 Q1016
  • 152220Z 21007KT 9999 SCT035 17/15 Q1016
  • 152150Z 21006KT CAVOK 17/15 Q1016

TAF TAF EGKK
Valid from the 16 at 00:00 until the 17 at 06:00 UTC


152253Z 1600/1706 22010KT 9999 SCT025
PROB30
TEMPO 1600/1607 BKN014
TEMPO 1607/1610 22015G25KT
TEMPO 1607/1615 6000 RA BKN012
PROB40
TEMPO 1609/1614 3000 +RA BKN009
BECMG 1615/1618 28005KT
PROB30 1623/1706 5000 BR MIFG
No reported NOTAMs for that airfield.



MET'MAP, your aeronautical weather chart ! - Copyright ORBIFLY December 2007 - Disclaimer

ORBIFLY MET'MAP TEAM :

Programming & Development : Alexandra Zaïnal
Concept & Development : Baudouin d'Aumeries
Co-Development & Prog : Marc-Olivier Méhu
Technical & hardware support : Manuel Goepfert

Contact : metmap@orbifly.com




SOURCES & CREDITS :

   NOAA